createdAt,value
2019-04-22T00:01:32.671Z,100256.95
2019-04-22T00:06:57.413Z,100253.48
2019-04-22T00:12:09.298Z,100250.27
2019-04-22T00:17:11.316Z,100240.97
2019-04-22T00:22:10.064Z,100240.11
2019-04-22T00:27:17.149Z,100242.34
2019-04-22T00:32:11.457Z,100235.53
2019-04-22T00:37:17.592Z,100235.36
2019-04-22T00:42:24.325Z,100225.67
2019-04-22T00:47:27.955Z,100223.14
2019-04-22T00:52:28.189Z,100221.73
2019-04-22T00:57:27.853Z,100210.67
2019-04-22T01:02:36.040Z,100213.17
2019-04-22T01:07:30.110Z,100207.38
2019-04-22T01:12:41.200Z,100198.92
2019-04-22T01:17:43.521Z,100193.91
2019-04-22T01:22:34.611Z,100193.37
2019-04-22T01:27:34.877Z,100192.65
2019-04-22T01:32:27.337Z,100189.75
2019-04-22T01:37:43.317Z,100185.64
2019-04-22T01:42:56.000Z,100186.13
2019-04-22T01:48:10.919Z,100183.98
2019-04-22T01:52:59.036Z,100177.32
2019-04-22T01:57:54.125Z,100172.33
2019-04-22T02:03:05.107Z,100167.59
2019-04-22T02:08:04.396Z,100162.31
2019-04-22T02:13:06.976Z,100156.67
2019-04-22T02:18:17.926Z,100157.59
2019-04-22T02:28:32.609Z,100145.16
2019-04-22T02:33:52.545Z,100139.28
2019-04-22T02:58:55.063Z,100116.02
2019-04-22T03:04:03.386Z,100114.45
2019-04-22T03:08:53.798Z,100113.53
2019-04-22T03:13:55.095Z,100112.84
2019-04-22T03:44:19.386Z,100086.37
2019-04-22T03:49:23.980Z,100078.14
2019-04-22T03:54:19.149Z,100077.72
2019-04-22T03:59:29.525Z,100073.03
2019-04-22T04:29:51.076Z,100054.45
2019-04-22T04:39:36.428Z,100053.23
2019-04-22T04:49:43.527Z,100051.86
2019-04-22T05:00:11.244Z,100036.90
2019-04-22T05:04:59.476Z,100032.52
2019-04-22T05:09:47.316Z,100033.44
2019-04-22T05:14:46.166Z,100028.45
2019-04-22T05:19:50.279Z,100018.55
2019-04-22T05:24:56.902Z,100023.48
2019-04-22T05:35:26.608Z,100022.08
2019-04-22T05:40:38.811Z,100017.34
2019-04-22T05:45:27.965Z,100023.08
2019-04-22T05:50:27.020Z,100027.61
2019-04-22T05:55:38.112Z,100021.94
2019-04-22T06:01:04.246Z,100018.67
2019-04-22T06:10:50.399Z,100016.31
2019-04-22T06:15:40.412Z,100020.77
2019-04-22T06:20:53.851Z,100022.66
2019-04-22T06:30:57.524Z,100023.09
2019-04-22T06:35:56.294Z,100019.67
2019-04-22T06:41:04.073Z,100014.89
2019-04-22T06:46:02.086Z,100013.13
2019-04-22T06:51:00.196Z,100011.89
2019-04-22T06:56:05.185Z,99996.56
2019-04-22T07:01:09.564Z,99997.64
2019-04-22T07:06:13.010Z,99987.31
2019-04-22T07:11:07.867Z,99985.87
2019-04-22T07:16:23.349Z,99981.28
2019-04-22T07:21:14.372Z,99983.26
2019-04-22T07:26:20.352Z,99974.97
2019-04-22T07:31:24.866Z,99967.95
2019-04-22T07:41:32.841Z,99957.95
2019-04-22T07:46:39.229Z,99950.59
2019-04-22T07:51:32.907Z,99949.50
2019-04-22T07:56:36.816Z,99938.21
2019-04-22T08:01:35.481Z,99940.45
2019-04-22T08:06:57.112Z,99925.52
2019-04-22T08:16:51.325Z,99930.83
2019-04-22T08:21:50.643Z,99933.98
2019-04-22T08:26:54.713Z,99935.22
2019-04-22T08:31:56.621Z,99920.86
2019-04-22T08:37:34.279Z,99918.27
2019-04-22T08:41:53.698Z,99914.52
2019-04-22T08:47:13.872Z,99900.41
2019-04-22T09:02:17.442Z,99862.52
2019-04-22T09:12:14.539Z,99850.55
2019-04-22T09:17:17.313Z,99836.36
2019-04-22T09:22:16.867Z,99834.20
2019-04-22T09:27:25.114Z,99825.75
2019-04-22T09:32:29.659Z,99823.52
2019-04-22T09:37:34.536Z,99810.64
2019-04-22T09:42:37.143Z,99809.00
2019-04-22T09:47:34.974Z,99802.23
2019-04-22T09:52:37.587Z,99799.23
2019-04-22T09:57:33.901Z,99783.47
2019-04-22T10:02:40.633Z,99775.25
2019-04-22T10:07:39.489Z,99767.78
2019-04-22T10:12:43.188Z,99760.06
2019-04-22T10:17:47.452Z,99754.20
2019-04-22T10:27:55.500Z,99717.98
2019-04-22T10:32:47.307Z,99710.02
2019-04-22T10:37:30.121Z,99706.23
2019-04-22T10:42:33.485Z,99681.17
2019-04-22T10:47:34.423Z,99694.22
2019-04-22T10:52:37.233Z,99679.44
2019-04-22T10:57:39.336Z,99659.59
2019-04-22T11:02:41.796Z,99659.89
2019-04-22T11:07:51.952Z,99652.53
2019-04-22T11:12:47.145Z,99642.63
2019-04-22T11:17:49.629Z,99642.18
2019-04-22T11:22:53.061Z,99642.89
2019-04-22T11:27:55.677Z,99618.71
2019-04-22T11:32:56.573Z,99620.23
2019-04-22T11:37:59.231Z,99599.80
2019-04-22T11:43:01.872Z,99604.52
2019-04-22T11:48:03.977Z,99600.91
2019-04-22T11:53:07.101Z,99592.28
2019-04-22T11:58:08.900Z,99591.53
2019-04-22T12:03:12.502Z,99585.40
2019-04-22T12:08:15.266Z,99571.25
2019-04-22T12:13:17.759Z,99576.53
2019-04-22T12:18:19.543Z,99574.63
2019-04-22T12:23:21.303Z,99563.19
2019-04-22T12:28:23.747Z,99557.77
2019-04-22T12:33:27.726Z,99538.06
2019-04-22T12:38:29.437Z,99526.50
2019-04-22T12:43:31.852Z,99506.84
2019-04-22T12:48:34.935Z,99512.05
2019-04-22T12:53:36.209Z,99502.03
2019-04-22T12:58:38.613Z,99491.64
2019-04-22T13:03:42.481Z,99489.52
2019-04-22T13:08:43.670Z,99466.21
2019-04-22T13:13:47.061Z,99468.67
2019-04-22T13:18:55.402Z,99466.98
2019-04-22T13:23:50.921Z,99451.59
2019-04-22T13:28:54.746Z,99443.17
2019-04-22T13:33:59.703Z,99429.34
2019-04-22T13:38:58.732Z,99414.28
2019-04-22T13:44:02.028Z,99412.11
2019-04-22T13:54:01.901Z,99405.30
2019-04-22T13:59:19.901Z,99391.89
2019-04-22T14:04:14.483Z,99386.45
2019-04-22T14:09:17.229Z,99380.28
2019-04-22T14:14:20.027Z,99377.77
2019-04-22T14:19:21.025Z,99372.28
2019-04-22T14:24:23.824Z,99362.95
2019-04-22T14:29:26.105Z,99347.33
2019-04-22T14:34:28.667Z,99355.13
2019-04-22T14:39:30.867Z,99351.66
2019-04-22T14:49:58.991Z,99337.37
2019-04-22T14:54:51.923Z,99332.50
2019-04-22T14:59:41.936Z,99325.52
2019-04-22T15:04:43.241Z,99316.08
2019-04-22T15:09:46.235Z,99315.70
2019-04-22T15:14:48.329Z,99310.36
2019-04-22T15:19:53.978Z,99303.67
2019-04-22T15:24:56.694Z,99295.80
2019-04-22T15:29:59.172Z,99295.06
2019-04-22T15:35:01.781Z,99288.00
2019-04-22T15:40:04.720Z,99285.17
2019-04-22T15:45:08.693Z,99276.23
2019-04-22T15:50:10.127Z,99265.39
2019-04-22T15:55:11.177Z,99260.02
2019-04-22T16:00:28.090Z,99255.44
2019-04-22T16:05:17.128Z,99268.12
2019-04-22T16:10:19.757Z,99249.07
2019-04-22T16:15:22.469Z,99236.78
2019-04-22T16:20:23.569Z,99231.67
2019-04-22T16:25:45.228Z,99224.77
2019-04-22T16:30:46.417Z,99224.37
2019-04-22T16:35:49.087Z,99217.45
2019-04-22T16:40:52.724Z,99214.83
2019-04-22T16:45:53.905Z,99212.75
2019-04-22T16:50:56.947Z,99217.28
2019-04-22T16:55:59.191Z,99211.23
2019-04-22T17:01:02.783Z,99193.28
2019-04-22T17:06:17.397Z,99199.70
2019-04-22T17:11:20.014Z,99196.28
2019-04-22T17:16:20.948Z,99198.98
2019-04-22T17:21:23.721Z,99188.73
2019-04-22T17:26:26.485Z,99193.58
2019-04-22T17:31:28.962Z,99190.11
2019-04-22T17:36:31.960Z,99189.66
2019-04-22T17:41:50.620Z,99191.94
2019-04-22T17:47:05.195Z,99187.96
2019-04-22T17:52:32.785Z,99195.67
2019-04-22T17:57:25.345Z,99194.63
2019-04-22T18:02:19.287Z,99193.67
2019-04-22T18:07:31.178Z,99199.00
2019-04-22T18:12:34.022Z,99196.80
2019-04-22T18:17:35.166Z,99192.46
2019-04-22T18:22:21.931Z,99191.38
2019-04-22T18:27:49.098Z,99195.59
2019-04-22T18:32:30.786Z,99193.36
2019-04-22T18:37:41.539Z,99196.83
2019-04-22T18:42:48.810Z,99193.56
2019-04-22T18:47:42.626Z,99198.34
2019-04-22T18:52:49.330Z,99191.61
2019-04-22T18:57:44.062Z,99191.42
2019-04-22T19:02:44.017Z,99194.05
2019-04-22T19:08:07.497Z,99195.27
2019-04-22T19:13:41.374Z,99205.45
2019-04-22T19:18:18.982Z,99189.33
2019-04-22T19:23:16.376Z,99192.39
2019-04-22T19:28:18.950Z,99193.97
2019-04-22T19:33:22.252Z,99187.02
2019-04-22T19:38:11.268Z,99184.08
2019-04-22T19:43:24.090Z,99185.09
2019-04-22T19:48:33.416Z,99179.57
2019-04-22T19:53:32.177Z,99172.09
2019-04-22T19:58:24.127Z,99164.15
2019-04-22T20:03:49.644Z,99156.89
2019-04-22T20:08:48.833Z,99165.29
2019-04-22T20:13:49.927Z,99164.98
2019-04-22T20:18:52.410Z,99161.45
2019-04-22T20:23:45.692Z,99154.97
2019-04-22T20:28:52.782Z,99161.01
2019-04-22T20:34:03.383Z,99155.11
2019-04-22T20:38:59.590Z,99144.81
2019-04-22T20:44:05.150Z,99142.76
2019-04-22T20:49:04.754Z,99143.85
2019-04-22T20:54:08.889Z,99131.59
2019-04-22T20:59:08.529Z,99135.02
2019-04-22T21:03:59.135Z,99129.78
2019-04-22T21:09:18.471Z,99122.16
2019-04-22T21:14:14.807Z,99126.13
2019-04-22T21:19:27.707Z,99117.92
2019-04-22T21:24:20.546Z,99107.45
2019-04-22T21:29:21.832Z,99095.48
2019-04-22T21:34:26.255Z,99091.38
2019-04-22T21:39:26.356Z,99086.45
2019-04-22T21:44:32.699Z,99078.28
2019-04-22T21:49:37.463Z,99090.39
2019-04-22T21:54:42.471Z,99083.75
2019-04-22T21:59:44.821Z,99077.48
2019-04-22T22:04:38.616Z,99077.11
2019-04-22T22:09:49.121Z,99079.47
2019-04-22T22:14:48.934Z,99079.22
2019-04-22T22:19:48.520Z,99073.58
2019-04-22T22:24:54.743Z,99065.68
2019-04-22T22:30:06.634Z,99074.06
2019-04-22T22:34:58.754Z,99060.23
2019-04-22T22:39:51.246Z,99066.83
2019-04-22T22:44:47.756Z,99056.87
2019-04-22T22:50:03.129Z,99060.00
2019-04-22T22:55:12.003Z,99057.48
2019-04-22T23:00:03.878Z,99061.53
2019-04-22T23:05:20.029Z,99043.07
2019-04-22T23:10:16.130Z,99046.78
2019-04-22T23:15:18.590Z,99051.69
2019-04-22T23:20:00.049Z,99043.16
2019-04-22T23:25:50.041Z,99033.70
2019-04-22T23:30:27.618Z,99013.98
2019-04-22T23:35:43.077Z,99022.06
2019-04-22T23:40:50.668Z,99012.19
2019-04-22T23:45:54.097Z,99004.59
2019-04-22T23:50:50.842Z,99001.97
2019-04-22T23:55:58.161Z,98997.09
